createdAt,value
2022-08-19T00:00:16.268Z,6.28
2022-08-19T00:02:50.139Z,6.57
2022-08-19T00:05:21.345Z,6.85
2022-08-19T00:07:52.117Z,5.95
2022-08-19T00:10:23.072Z,7.25
2022-08-19T00:12:54.513Z,7.12
2022-08-19T00:15:25.462Z,7.28
2022-08-19T00:17:57.047Z,6.80
2022-08-19T00:20:28.077Z,6.37
2022-08-19T00:22:59.917Z,7.03
2022-08-19T00:25:30.817Z,6.82
2022-08-19T00:28:01.212Z,7.37
2022-08-19T00:30:30.376Z,6.85
2022-08-19T00:33:00.672Z,7.37
2022-08-19T00:35:31.376Z,7.45
2022-08-19T00:38:02.176Z,7.70
2022-08-19T00:40:33.018Z,7.18
2022-08-19T00:43:03.616Z,7.35
2022-08-19T00:45:37.517Z,8.52
2022-08-19T00:48:13.308Z,6.55
2022-08-19T00:50:51.730Z,7.40
2022-08-19T00:53:24.733Z,7.28
2022-08-19T00:55:58.345Z,7.30
2022-08-19T00:58:32.212Z,7.10
2022-08-19T01:01:05.645Z,7.32
2022-08-19T01:06:23.184Z,7.15
2022-08-19T01:08:52.487Z,7.45
2022-08-19T01:11:22.442Z,6.78
2022-08-19T01:13:54.163Z,7.40
2022-08-19T01:16:27.259Z,7.72
2022-08-19T01:18:57.696Z,7.30
2022-08-19T01:21:39.962Z,6.75
2022-08-19T01:24:09.298Z,7.40
2022-08-19T01:26:45.274Z,6.80
2022-08-19T01:29:15.234Z,7.25
2022-08-19T01:31:43.901Z,6.68
2022-08-19T01:34:11.865Z,7.65
2022-08-19T01:36:46.569Z,6.75
2022-08-19T01:39:18.380Z,6.97
2022-08-19T01:41:48.702Z,6.90
2022-08-19T01:44:19.273Z,7.20
2022-08-19T01:49:18.641Z,6.80
2022-08-19T01:51:48.311Z,7.93
2022-08-19T01:54:22.842Z,7.07
2022-08-19T01:57:01.003Z,7.12
2022-08-19T01:59:29.561Z,7.25
2022-08-19T02:01:57.663Z,6.82
2022-08-19T02:04:26.732Z,7.10
2022-08-19T02:06:54.219Z,7.10
2022-08-19T02:09:21.783Z,6.97
2022-08-19T02:11:50.553Z,8.10
2022-08-19T02:14:18.727Z,7.70
2022-08-19T02:16:47.375Z,8.30
2022-08-19T02:19:15.770Z,7.87
2022-08-19T02:21:45.379Z,7.20
2022-08-19T02:24:14.658Z,7.55
2022-08-19T02:26:45.116Z,7.22
2022-08-19T02:29:15.014Z,7.45
2022-08-19T02:31:46.134Z,7.50
2022-08-19T02:34:16.404Z,7.57
2022-08-19T02:36:51.814Z,7.47
2022-08-19T02:39:22.219Z,11.48
2022-08-19T02:41:54.806Z,9.52
2022-08-19T02:44:31.249Z,8.15
2022-08-19T02:47:01.579Z,7.30
2022-08-19T02:49:34.759Z,7.12
2022-08-19T02:52:05.827Z,7.55
2022-08-19T02:54:35.890Z,7.57
2022-08-19T02:57:04.050Z,7.68
2022-08-19T02:59:33.761Z,9.18
2022-08-19T03:02:02.423Z,8.40
2022-08-19T03:04:30.806Z,7.60
2022-08-19T03:07:10.425Z,7.07
2022-08-19T03:09:39.235Z,7.68
2022-08-19T03:12:08.327Z,7.45
2022-08-19T03:14:36.671Z,7.20
2022-08-19T03:17:05.609Z,8.02
2022-08-19T03:19:33.518Z,7.95
2022-08-19T03:22:01.851Z,7.90
2022-08-19T03:24:29.951Z,7.90
2022-08-19T03:26:59.819Z,7.40
2022-08-19T03:29:32.789Z,8.60
2022-08-19T03:32:05.153Z,7.30
2022-08-19T03:34:39.038Z,7.45
2022-08-19T03:37:13.418Z,7.72
2022-08-19T03:39:43.322Z,8.95
2022-08-19T03:42:38.779Z,7.97
2022-08-19T03:45:00.464Z,7.80
2022-08-19T03:47:28.756Z,8.55
2022-08-19T03:49:56.690Z,8.00
2022-08-19T03:52:24.866Z,8.38
2022-08-19T03:54:53.999Z,8.60
2022-08-19T03:57:30.652Z,7.05
2022-08-19T04:00:12.531Z,7.75
2022-08-19T04:02:58.138Z,8.30
2022-08-19T04:05:29.759Z,8.25
2022-08-19T04:08:00.101Z,8.85
2022-08-19T04:10:29.383Z,8.73
2022-08-19T04:12:57.213Z,8.82
2022-08-19T04:15:26.674Z,9.13
2022-08-19T04:17:55.818Z,8.25
2022-08-19T04:20:23.424Z,8.23
2022-08-19T04:22:52.217Z,7.05
2022-08-19T04:25:19.955Z,8.25
2022-08-19T04:27:49.541Z,9.05
2022-08-19T04:30:18.920Z,8.27
2022-08-19T04:32:47.612Z,7.87
2022-08-19T04:35:16.769Z,7.57
2022-08-19T04:40:33.903Z,7.87
2022-08-19T04:43:03.225Z,8.07
2022-08-19T04:45:39.666Z,8.80
2022-08-19T04:48:26.877Z,9.10
2022-08-19T04:51:00.073Z,7.95
2022-08-19T04:53:29.927Z,8.75
2022-08-19T04:56:09.436Z,8.73
2022-08-19T04:58:43.393Z,8.15
2022-08-19T05:01:18.585Z,7.50
2022-08-19T05:03:48.382Z,7.65
2022-08-19T05:06:18.337Z,7.87
2022-08-19T05:08:47.785Z,8.68
2022-08-19T05:11:26.639Z,7.87
2022-08-19T05:13:56.811Z,8.45
2022-08-19T05:16:26.683Z,8.50
2022-08-19T05:19:14.764Z,9.75
2022-08-19T05:22:01.844Z,7.95
2022-08-19T05:24:30.405Z,9.05
2022-08-19T05:27:03.507Z,8.20
2022-08-19T05:29:38.228Z,7.40
2022-08-19T05:32:10.500Z,7.30
2022-08-19T05:34:39.503Z,8.55
2022-08-19T05:37:08.587Z,7.05
2022-08-19T05:39:38.250Z,7.68
2022-08-19T05:42:09.018Z,7.28
2022-08-19T05:44:42.350Z,7.00
2022-08-19T05:47:10.199Z,7.68
2022-08-19T05:49:39.733Z,6.97
2022-08-19T05:52:11.905Z,6.95
2022-08-19T05:54:42.718Z,7.07
2022-08-19T05:57:12.070Z,6.47
2022-08-19T05:59:41.647Z,7.00
2022-08-19T06:02:10.081Z,7.10
2022-08-19T06:04:40.492Z,7.62
2022-08-19T06:07:12.208Z,6.60
2022-08-19T06:09:43.741Z,6.68
2022-08-19T06:12:35.591Z,6.68
2022-08-19T06:15:10.098Z,6.62
2022-08-19T06:17:38.999Z,6.75
2022-08-19T06:20:14.995Z,7.03
2022-08-19T06:22:45.573Z,6.50
2022-08-19T06:25:15.323Z,6.32
2022-08-19T06:28:14.798Z,6.18
2022-08-19T06:30:32.195Z,6.53
2022-08-19T06:33:00.263Z,7.25
2022-08-19T06:35:30.991Z,7.30
2022-08-19T06:38:01.551Z,6.45
2022-08-19T06:40:30.063Z,6.40
2022-08-19T06:43:01.573Z,6.90
2022-08-19T06:45:34.878Z,6.22
2022-08-19T06:48:09.388Z,6.95
2022-08-19T06:50:39.858Z,5.85
2022-08-19T06:53:08.554Z,6.53
2022-08-19T06:55:36.482Z,6.40
2022-08-19T06:58:06.373Z,7.65
2022-08-19T07:00:34.954Z,7.32
2022-08-19T07:03:06.403Z,6.50
2022-08-19T07:05:45.548Z,6.40
2022-08-19T07:08:14.710Z,7.15
2022-08-19T07:10:47.500Z,6.30
2022-08-19T07:13:15.358Z,6.65
2022-08-19T07:15:43.342Z,7.37
2022-08-19T07:18:11.686Z,6.05
2022-08-19T07:20:41.779Z,6.15
2022-08-19T07:23:16.120Z,5.90
2022-08-19T07:25:44.946Z,6.03
2022-08-19T07:28:24.106Z,6.25
2022-08-19T07:30:53.299Z,6.50
2022-08-19T07:33:21.864Z,6.18
2022-08-19T07:35:50.960Z,6.32
2022-08-19T07:38:18.913Z,6.25
2022-08-19T07:40:47.532Z,5.62
2022-08-19T07:43:17.315Z,6.53
2022-08-19T07:45:46.550Z,5.82
2022-08-19T07:48:15.524Z,6.12
2022-08-19T07:50:43.147Z,6.45
2022-08-19T07:53:11.115Z,6.35
2022-08-19T07:55:43.583Z,6.70
2022-08-19T07:58:15.938Z,6.80
2022-08-19T08:00:45.216Z,5.80
2022-08-19T08:03:15.202Z,7.03
2022-08-19T08:06:02.618Z,7.20
2022-08-19T08:08:50.366Z,8.40
2022-08-19T08:11:24.056Z,6.43
2022-08-19T08:14:00.367Z,5.95
2022-08-19T08:16:32.478Z,6.12
2022-08-19T08:19:00.578Z,5.55
2022-08-19T08:21:29.112Z,5.87
2022-08-19T08:23:57.311Z,5.72
2022-08-19T08:26:27.294Z,5.87
2022-08-19T08:28:56.167Z,6.60
2022-08-19T08:31:24.789Z,7.03
2022-08-19T08:33:53.446Z,6.28
2022-08-19T08:36:21.378Z,5.82
2022-08-19T08:38:49.360Z,5.47
2022-08-19T08:41:47.722Z,4.85
2022-08-19T08:44:24.956Z,5.28
2022-08-19T08:46:58.787Z,5.25
2022-08-19T08:49:29.477Z,5.80
2022-08-19T08:52:04.383Z,5.45
2022-08-19T08:54:39.988Z,5.25
2022-08-19T08:57:19.430Z,5.93
2022-08-19T08:59:51.844Z,5.12
2022-08-19T09:02:20.808Z,4.62
2022-08-19T09:04:49.403Z,5.70
2022-08-19T09:07:34.813Z,5.28
2022-08-19T09:10:35.361Z,5.70
2022-08-19T09:13:37.835Z,5.65
2022-08-19T09:16:14.473Z,5.70
2022-08-19T09:18:59.106Z,6.12
2022-08-19T09:21:33.012Z,5.80
2022-08-19T09:24:03.382Z,5.78
2022-08-19T09:26:48.189Z,5.90
2022-08-19T09:29:22.700Z,5.50
2022-08-19T09:31:51.718Z,4.90
2022-08-19T09:34:22.123Z,5.80
2022-08-19T09:36:54.661Z,7.35
2022-08-19T09:39:23.106Z,5.37
2022-08-19T09:41:51.302Z,6.15
2022-08-19T09:44:21.925Z,5.97
2022-08-19T09:46:52.025Z,5.65
2022-08-19T09:49:22.507Z,5.25
2022-08-19T09:51:52.561Z,5.30
2022-08-19T09:56:54.535Z,5.72
2022-08-19T09:59:22.597Z,5.32
2022-08-19T10:01:50.964Z,5.15
2022-08-19T10:04:19.895Z,5.75
2022-08-19T10:06:53.497Z,6.32
2022-08-19T10:09:26.226Z,5.55
2022-08-19T10:12:03.706Z,5.43
2022-08-19T10:14:32.413Z,5.30
2022-08-19T10:17:01.397Z,5.45
2022-08-19T10:19:52.678Z,4.62
2022-08-19T10:22:25.677Z,5.60
2022-08-19T10:24:54.978Z,5.32
2022-08-19T10:27:22.806Z,4.85
2022-08-19T10:29:50.871Z,5.95
2022-08-19T10:32:19.257Z,6.18
2022-08-19T10:35:06.105Z,4.90
2022-08-19T10:37:34.512Z,5.15
2022-08-19T10:40:05.371Z,4.82
2022-08-19T10:42:33.804Z,4.78
2022-08-19T10:45:06.932Z,5.35
2022-08-19T10:47:34.875Z,5.30
2022-08-19T10:50:22.767Z,5.97
2022-08-19T10:52:57.284Z,5.60
2022-08-19T10:55:43.762Z,5.57
2022-08-19T10:58:13.513Z,4.97
2022-08-19T11:00:43.622Z,6.03
2022-08-19T11:03:12.165Z,6.78
2022-08-19T11:05:40.755Z,6.57
2022-08-19T11:08:22.516Z,7.50
2022-08-19T11:11:01.020Z,6.45
2022-08-19T11:13:30.358Z,6.32
2022-08-19T11:16:09.262Z,7.80
2022-08-19T11:18:43.860Z,6.97
2022-08-19T11:21:18.466Z,7.47
2022-08-19T11:23:48.135Z,8.18
2022-08-19T11:26:16.736Z,8.30
2022-08-19T11:28:44.518Z,16.70
2022-08-19T11:31:20.527Z,13.35
2022-08-19T11:33:51.992Z,11.93
2022-08-19T11:36:22.493Z,11.80
2022-08-19T11:38:50.945Z,11.45
2022-08-19T11:41:21.540Z,9.25
2022-08-19T11:43:50.450Z,9.40
2022-08-19T11:46:18.764Z,9.13
2022-08-19T11:48:46.545Z,10.55
2022-08-19T11:51:20.590Z,11.73
2022-08-19T11:53:49.105Z,12.27
2022-08-19T11:56:17.301Z,12.90
2022-08-19T11:58:44.859Z,13.18
2022-08-19T12:01:15.897Z,13.32
2022-08-19T12:03:49.032Z,13.43
2022-08-19T12:06:19.895Z,13.88
2022-08-19T12:08:48.600Z,12.93
2022-08-19T12:11:16.980Z,12.43
2022-08-19T12:13:48.799Z,10.88
2022-08-19T12:16:19.912Z,13.15
2022-08-19T12:18:48.247Z,11.65
2022-08-19T12:21:27.683Z,9.68
2022-08-19T12:23:56.737Z,11.45
2022-08-19T12:26:26.264Z,10.17
2022-08-19T12:28:54.491Z,11.38
2022-08-19T12:31:22.431Z,9.65
2022-08-19T12:33:50.945Z,10.25
2022-08-19T12:36:18.982Z,10.63
2022-08-19T12:38:47.926Z,7.53
2022-08-19T12:41:19.325Z,5.50
2022-08-19T12:43:49.276Z,5.40
2022-08-19T12:46:19.260Z,5.07
2022-08-19T12:48:47.310Z,5.10
2022-08-19T12:51:20.919Z,5.50
2022-08-19T12:53:49.597Z,5.60
2022-08-19T12:56:22.289Z,4.93
2022-08-19T12:58:52.999Z,4.25
2022-08-19T13:01:23.528Z,4.53
2022-08-19T13:03:55.150Z,5.07
2022-08-19T13:06:23.909Z,4.37
2022-08-19T13:08:57.711Z,4.07
2022-08-19T13:11:27.838Z,4.82
2022-08-19T13:13:56.900Z,5.40
2022-08-19T13:16:24.586Z,4.18
2022-08-19T13:18:53.070Z,4.10
2022-08-19T13:21:23.934Z,4.93
2022-08-19T13:23:52.050Z,4.12
2022-08-19T13:26:19.930Z,4.60
2022-08-19T13:29:07.133Z,4.82
2022-08-19T13:31:55.640Z,4.68
2022-08-19T13:34:31.920Z,4.20
2022-08-19T13:37:00.461Z,4.07
2022-08-19T13:39:29.011Z,4.85
2022-08-19T13:41:57.491Z,4.70
2022-08-19T13:44:25.627Z,5.68
2022-08-19T13:46:54.325Z,5.25
2022-08-19T13:49:24.240Z,4.70
2022-08-19T13:51:51.982Z,4.45
2022-08-19T13:54:20.023Z,5.20
2022-08-19T13:56:47.671Z,3.05
2022-08-19T13:59:15.589Z,4.25
2022-08-19T14:01:44.267Z,3.85
2022-08-19T14:04:12.515Z,3.70
2022-08-19T14:06:40.666Z,3.65
2022-08-19T14:09:08.968Z,3.90
2022-08-19T14:11:38.532Z,4.00
2022-08-19T14:14:06.631Z,3.30
2022-08-19T14:16:34.715Z,3.53
2022-08-19T14:19:03.223Z,3.83
2022-08-19T14:21:31.028Z,3.72
2022-08-19T14:23:59.341Z,4.12
2022-08-19T14:26:28.162Z,4.35
2022-08-19T14:28:58.394Z,3.35
2022-08-19T14:31:30.756Z,3.03
2022-08-19T14:33:59.403Z,3.05
2022-08-19T14:36:27.867Z,2.87
2022-08-19T14:38:56.464Z,2.30
2022-08-19T14:41:25.175Z,2.70
2022-08-19T14:43:54.778Z,3.17
2022-08-19T14:46:26.272Z,5.10
2022-08-19T14:48:57.537Z,2.78
2022-08-19T14:51:28.215Z,2.90
2022-08-19T14:53:57.200Z,2.50
2022-08-19T14:56:31.413Z,2.90
2022-08-19T14:59:02.157Z,3.10
2022-08-19T15:01:31.538Z,2.50
2022-08-19T15:06:29.299Z,3.22
2022-08-19T15:09:04.875Z,2.45
2022-08-19T15:11:35.885Z,2.62
2022-08-19T15:14:11.120Z,2.80
2022-08-19T15:16:41.586Z,2.62
2022-08-19T15:19:15.669Z,2.62
2022-08-19T15:21:46.919Z,2.47
2022-08-19T15:24:19.726Z,2.75
2022-08-19T15:26:48.082Z,2.95
2022-08-19T15:29:18.109Z,2.53
2022-08-19T15:31:51.819Z,3.28
2022-08-19T15:34:24.152Z,2.83
2022-08-19T15:37:02.142Z,2.83
2022-08-19T15:39:33.489Z,2.23
2022-08-19T15:42:06.963Z,2.53
2022-08-19T15:44:42.638Z,2.37
2022-08-19T15:47:12.768Z,2.35
2022-08-19T15:49:47.513Z,2.72
2022-08-19T15:52:18.398Z,2.78
2022-08-19T15:54:52.639Z,2.85
2022-08-19T15:57:23.264Z,3.50
2022-08-19T16:00:14.036Z,3.47
2022-08-19T16:03:03.574Z,2.53
2022-08-19T16:05:52.878Z,2.87
2022-08-19T16:08:26.665Z,2.95
2022-08-19T16:13:27.964Z,2.50
2022-08-19T16:15:57.555Z,3.17
2022-08-19T16:18:28.307Z,3.37
2022-08-19T16:20:57.499Z,2.83
2022-08-19T16:23:35.553Z,3.10
2022-08-19T16:26:03.810Z,3.12
2022-08-19T16:28:39.055Z,3.05
2022-08-19T16:31:14.199Z,2.90
2022-08-19T16:33:51.389Z,3.08
2022-08-19T16:36:27.091Z,3.17
2022-08-19T16:39:01.806Z,2.87
2022-08-19T16:41:31.583Z,2.97
2022-08-19T16:44:03.252Z,2.92
2022-08-19T16:46:33.764Z,2.58
2022-08-19T16:49:05.610Z,2.70
2022-08-19T16:51:37.000Z,2.97
2022-08-19T16:54:06.025Z,3.72
2022-08-19T16:56:34.292Z,3.05
2022-08-19T16:59:04.054Z,4.00
2022-08-19T17:01:37.288Z,3.90
2022-08-19T17:04:05.261Z,3.35
2022-08-19T17:06:35.669Z,3.60
2022-08-19T17:09:06.881Z,4.22
2022-08-19T17:11:41.559Z,2.58
2022-08-19T17:14:11.820Z,2.40
2022-08-19T17:16:40.046Z,2.45
2022-08-19T17:19:08.678Z,3.08
2022-08-19T17:21:40.857Z,2.90
2022-08-19T17:24:08.995Z,2.85
2022-08-19T17:26:40.133Z,3.47
2022-08-19T17:29:08.826Z,2.80
2022-08-19T17:34:12.407Z,3.25
2022-08-19T17:36:40.869Z,2.95
2022-08-19T17:39:09.703Z,3.30
2022-08-19T17:41:41.084Z,3.22
2022-08-19T17:44:09.979Z,2.75
2022-08-19T17:46:37.912Z,3.20
2022-08-19T17:49:05.667Z,3.15
2022-08-19T17:51:34.033Z,2.78
2022-08-19T17:54:04.488Z,2.60
2022-08-19T17:56:33.000Z,2.90
2022-08-19T17:59:02.829Z,2.75
2022-08-19T18:01:43.977Z,2.80
2022-08-19T18:04:25.065Z,2.90
2022-08-19T18:06:55.309Z,2.45
2022-08-19T18:09:41.162Z,4.05
2022-08-19T18:12:16.467Z,3.60
2022-08-19T18:14:45.144Z,3.28
2022-08-19T18:17:17.405Z,3.40
2022-08-19T18:19:47.778Z,3.40
2022-08-19T18:22:33.765Z,4.53
2022-08-19T18:25:06.380Z,3.03
2022-08-19T18:27:34.571Z,3.08
2022-08-19T18:30:05.596Z,3.83
2022-08-19T18:32:34.517Z,7.10
2022-08-19T18:35:06.606Z,3.83
2022-08-19T18:37:34.547Z,4.50
2022-08-19T18:40:22.124Z,4.18
2022-08-19T18:43:09.121Z,3.60
2022-08-19T18:45:57.034Z,3.72
2022-08-19T18:48:44.306Z,5.78
2022-08-19T18:51:13.591Z,6.10
2022-08-19T18:53:42.007Z,7.70
2022-08-19T18:56:11.162Z,6.62
2022-08-19T18:58:39.709Z,6.22
2022-08-19T19:01:23.446Z,6.35
2022-08-19T19:03:53.539Z,6.97
2022-08-19T19:06:25.675Z,6.95
2022-08-19T19:08:55.072Z,6.97
2022-08-19T19:11:29.853Z,6.45
2022-08-19T19:13:58.570Z,5.93
2022-08-19T19:16:26.863Z,5.90
2022-08-19T19:18:54.884Z,7.20
2022-08-19T19:21:25.686Z,5.15
2022-08-19T19:23:54.759Z,6.40
2022-08-19T19:26:23.073Z,6.35
2022-08-19T19:28:51.693Z,5.50
2022-08-19T19:31:26.755Z,4.62
2022-08-19T19:33:56.358Z,5.05
2022-08-19T19:36:24.485Z,5.20
2022-08-19T19:38:55.643Z,3.50
2022-08-19T19:41:26.537Z,3.60
2022-08-19T19:44:30.762Z,4.32
2022-08-19T19:46:55.873Z,3.65
2022-08-19T19:51:55.695Z,4.25
2022-08-19T19:54:24.049Z,4.12
2022-08-19T19:56:56.649Z,4.65
2022-08-19T19:59:30.268Z,5.03
2022-08-19T20:02:05.939Z,4.62
2022-08-19T20:04:42.667Z,4.45
2022-08-19T20:07:10.910Z,4.53
2022-08-19T20:09:58.817Z,4.28
2022-08-19T20:12:28.068Z,5.00
2022-08-19T20:14:56.368Z,4.65
2022-08-19T20:17:27.518Z,5.43
2022-08-19T20:19:58.096Z,6.10
2022-08-19T20:22:27.856Z,6.72
2022-08-19T20:25:03.798Z,6.90
2022-08-19T20:27:39.799Z,6.75
2022-08-19T20:30:16.010Z,7.32
2022-08-19T20:32:52.375Z,7.47
2022-08-19T20:35:21.834Z,7.47
2022-08-19T20:37:57.881Z,8.35
2022-08-19T20:40:27.538Z,8.32
2022-08-19T20:42:56.991Z,9.82
2022-08-19T20:45:33.700Z,9.50
2022-08-19T20:48:04.351Z,8.93
2022-08-19T20:50:33.269Z,9.23
2022-08-19T20:53:02.162Z,9.82
2022-08-19T20:55:33.066Z,9.73
2022-08-19T20:58:05.797Z,10.48
2022-08-19T21:00:47.357Z,10.00
2022-08-19T21:03:19.911Z,10.48
2022-08-19T21:05:50.991Z,9.35
2022-08-19T21:08:25.172Z,10.50
2022-08-19T21:10:56.854Z,10.45
2022-08-19T21:13:26.975Z,10.55
2022-08-19T21:16:09.020Z,10.02
2022-08-19T21:18:45.340Z,9.52
2022-08-19T21:21:27.068Z,9.02
2022-08-19T21:23:59.697Z,9.68
2022-08-19T21:26:30.805Z,9.10
2022-08-19T21:29:00.579Z,9.85
2022-08-19T21:31:33.294Z,10.30
2022-08-19T21:34:05.685Z,8.53
2022-08-19T21:36:40.302Z,9.48
2022-08-19T21:39:11.570Z,9.73
2022-08-19T21:41:47.320Z,10.45
2022-08-19T21:44:26.377Z,9.07
2022-08-19T21:47:03.907Z,9.43
2022-08-19T21:49:40.420Z,9.10
2022-08-19T21:52:28.177Z,8.73
2022-08-19T21:55:01.580Z,8.18
2022-08-19T21:57:47.301Z,8.88
2022-08-19T22:00:27.672Z,8.57
2022-08-19T22:03:18.946Z,9.60
2022-08-19T22:06:01.160Z,9.50
2022-08-19T22:08:45.551Z,10.88
2022-08-19T22:11:38.514Z,10.10
2022-08-19T22:14:24.999Z,9.90
2022-08-19T22:17:14.300Z,8.60
2022-08-19T22:20:08.170Z,8.80
2022-08-19T22:23:11.230Z,8.60
2022-08-19T22:26:12.622Z,8.32
2022-08-19T22:29:34.003Z,8.55
2022-08-19T22:32:27.149Z,7.62
2022-08-19T22:41:18.594Z,8.45
2022-08-19T22:44:20.816Z,8.15
2022-08-19T22:47:30.220Z,9.25
2022-08-19T22:50:40.374Z,8.82
2022-08-19T22:53:28.050Z,9.38
2022-08-19T22:56:39.304Z,9.68
2022-08-19T22:59:29.149Z,9.13
2022-08-19T23:05:37.950Z,8.75
2022-08-19T23:08:43.944Z,10.75
2022-08-19T23:15:38.793Z,9.90
2022-08-19T23:18:11.952Z,9.18
2022-08-19T23:21:28.262Z,8.20
2022-08-19T23:24:47.123Z,7.82
2022-08-19T23:28:04.819Z,7.55
2022-08-19T23:31:10.261Z,7.53
2022-08-19T23:34:12.250Z,6.53
2022-08-19T23:37:12.975Z,7.28
2022-08-19T23:40:12.507Z,6.32
2022-08-19T23:43:17.894Z,6.20
2022-08-19T23:49:45.412Z,8.13
2022-08-19T23:52:54.278Z,6.65
2022-08-19T23:55:53.044Z,6.25
2022-08-19T23:58:49.085Z,8.00
